Time;durP1;ratioP1;P1;durP2;ratioP2;P2;SDS_P1;SDS_P2;PMS_P1;PMS_P2;Temp;Humidity;BMP_temperature;BMP_pressure;BME280_temperature;BME280_humidity;BME280_pressure;Samples;Min_cycle;Max_cycle;Signal;HPM_P1;HPM_P2
2022/05/01 00:00:55;;;;;;;;;;;;;;;19.21;49.64;101495.60;104317;1313;74808;-81
2022/05/01 00:03:50;;;;;;;;;;;;;;;19.20;49.71;101495.44;103376;1320;61223;-81
2022/05/01 00:06:35;;;;;;;;;;;;;;;;;;;;;
2022/05/01 00:09:21;;;;;;;;;;;;;;;19.20;49.78;101493.63;103409;1320;73007;-83
2022/05/01 00:12:13;;;;;;;;;;;;;;;19.20;49.67;101494.00;103586;1320;75650;-86
2022/05/01 00:15:24;;;;;;;;;;;;;;;19.20;49.50;101495.63;103595;1320;61206;-83
2022/05/01 00:18:12;;;;;;;;;;;;;;;19.20;49.78;101493.12;103595;1320;61142;-86
2022/05/01 00:20:56;;;;;;;;;;;;;;;19.19;49.65;101494.40;103021;1325;72954;-82
2022/05/01 00:23:50;;;;;;;;;;;;;;;19.20;49.72;101496.34;103177;1320;74930;-88
2022/05/01 00:26:32;;;;;;;;;;;;;;;19.20;49.68;101498.48;103355;1320;61223;-86
2022/05/01 00:29:19;;;;;;;;;;;;;;;;;;;;;
2022/05/01 00:32:09;;;;;;;;;;;;;;;19.19;49.68;101493.70;103272;1320;72001;-85
2022/05/01 00:38:14;;;;;;;;;;;;;;;19.19;49.68;101494.61;102763;1324;61309;-81
2022/05/01 00:40:52;;;;;;;;;;;;;;;19.19;49.70;101495.48;102879;1323;60795;-82
2022/05/01 00:44:05;;;;;;;;;;;;;;;19.19;49.60;101493.35;103041;1323;74344;-84
2022/05/01 00:46:51;;;;;;;;;;;;;;;19.19;49.53;101493.71;103111;1320;73859;-80
2022/05/01 00:49:37;;;;;;;;;;;;;;;19.19;49.67;101489.80;103050;1320;61172;-83
2022/05/01 00:52:22;;;;;;;;;;;;;;;19.19;49.54;101489.60;103130;1320;61378;-81
2022/05/01 00:54:57;;;;;;;;;;;;;;;19.19;49.64;101490.67;103097;1320;73135;-80
2022/05/01 00:57:43;;;;;;;;;;;;;;;19.19;49.73;101491.20;103313;1317;75793;-81
2022/05/01 01:00:51;;;;;;;;;;;;;;;19.19;49.65;101491.55;102697;1329;61295;-84
2022/05/01 01:04:11;;;;;;;;;;;;;;;19.19;49.55;101486.37;102746;1328;61345;-88
2022/05/01 01:06:51;;;;;;;;;;;;;;;19.19;49.55;101482.45;102558;1327;71709;-86
2022/05/01 01:09:42;;;;;;;;;;;;;;;19.19;49.61;101478.34;102769;1329;75896;-81
2022/05/01 01:16:05;;;;;;;;;;;;;;;19.19;49.56;101478.36;102330;1332;61427;-85
2022/05/01 01:19:11;;;;;;;;;;;;;;;19.18;49.53;101478.77;102555;1332;72915;-87
2022/05/01 01:22:06;;;;;;;;;;;;;;;;;;;;;
2022/05/01 01:25:13;;;;;;;;;;;;;;;19.18;49.43;101472.19;102546;1332;61387;-83
2022/05/01 01:28:11;;;;;;;;;;;;;;;;;;;;;
2022/05/01 01:34:38;;;;;;;;;;;;;;;19.18;49.47;101480.23;102016;1338;73729;-82
2022/05/01 01:37:29;;;;;;;;;;;;;;;19.18;49.48;101481.64;102070;1329;61691;-83
2022/05/01 01:40:23;;;;;;;;;;;;;;;;;;;;;
2022/05/01 01:43:27;;;;;;;;;;;;;;;19.17;49.44;101483.65;102472;1332;72941;-82
2022/05/01 01:46:16;;;;;;;;;;;;;;;19.17;49.43;101482.58;102498;1332;74762;-83
2022/05/01 01:49:04;;;;;;;;;;;;;;;19.17;49.38;101481.31;102326;1335;61278;-83
2022/05/01 01:51:54;;;;;;;;;;;;;;;19.16;49.30;101479.23;102315;1331;61352;-84
2022/05/01 01:54:46;;;;;;;;;;;;;;;19.16;49.29;101481.89;102485;1332;72640;-84
2022/05/01 01:57:32;;;;;;;;;;;;;;;;;;;;;
2022/05/01 02:00:39;;;;;;;;;;;;;;;;;;;;;
2022/05/01 02:03:28;;;;;;;;;;;;;;;19.16;49.33;101488.72;102139;1332;61267;-82
2022/05/01 02:06:22;;;;;;;;;;;;;;;19.16;49.24;101489.96;102548;1332;72829;-82
2022/05/01 02:09:09;;;;;;;;;;;;;;;19.16;49.30;101487.84;102347;1332;74889;-87
2022/05/01 02:12:10;;;;;;;;;;;;;;;19.15;49.22;101485.38;102626;1325;61344;-82
2022/05/01 02:15:02;;;;;;;;;;;;;;;19.15;49.26;101486.10;102744;1326;61194;-82
2022/05/01 02:17:59;;;;;;;;;;;;;;;19.15;49.21;101485.73;102779;1326;73985;-83
2022/05/01 02:23:28;;;;;;;;;;;;;;;19.15;49.20;101486.64;102856;1324;61535;-86
2022/05/01 02:26:19;;;;;;;;;;;;;;;19.15;49.21;101495.73;103299;1321;61195;-86
2022/05/01 02:29:13;;;;;;;;;;;;;;;19.14;49.24;101497.02;104044;1312;73228;-83
2022/05/01 02:32:22;;;;;;;;;;;;;;;19.14;49.09;101492.91;104312;1312;76303;-82
2022/05/01 02:35:06;;;;;;;;;;;;;;;19.14;49.29;101493.45;104451;1311;61531;-84
2022/05/01 02:37:46;;;;;;;;;;;;;;;;;;;;;
2022/05/01 02:40:45;;;;;;;;;;;;;;;;;;;;;
2022/05/01 02:43:51;;;;;;;;;;;;;;;19.13;49.18;101488.31;104900;1306;74942;-81
2022/05/01 02:46:25;;;;;;;;;;;;;;;19.14;49.21;101490.44;104869;1306;61342;-84
2022/05/01 02:52:21;;;;;;;;;;;;;;;19.13;48.98;101490.27;104506;1309;73225;-81
2022/05/01 02:54:50;;;;;;;;;;;;;;;19.13;49.11;101487.43;104701;1306;75985;-83
2022/05/01 02:57:52;;;;;;;;;;;;;;;19.13;49.06;101485.49;104619;1306;61374;-84
2022/05/01 03:00:54;;;;;;;;;;;;;;;;;;;;;
2022/05/01 03:03:40;;;;;;;;;;;;;;;19.12;49.14;101499.41;104725;1306;73205;-83
2022/05/01 03:06:37;;;;;;;;;;;;;;;19.13;49.16;101504.94;104636;1307;74822;-82
2022/05/01 03:09:29;;;;;;;;;;;;;;;19.12;49.15;101506.60;104727;1305;61216;-78
2022/05/01 03:12:25;;;;;;;;;;;;;;;;;;;;;
2022/05/01 03:15:03;;;;;;;;;;;;;;;;;;;;;
2022/05/01 03:24:43;;;;;;;;;;;;;;;19.12;49.01;101508.20;104925;1306;61653;-85
2022/05/01 03:27:42;;;;;;;;;;;;;;;19.12;49.02;101508.36;104853;1306;71474;-87
2022/05/01 03:31:03;;;;;;;;;;;;;;;;;;;;;
2022/05/01 03:33:40;;;;;;;;;;;;;;;;;;;;;
2022/05/01 03:36:45;;;;;;;;;;;;;;;19.12;49.06;101508.55;104910;1306;61141;-84
2022/05/01 03:39:30;;;;;;;;;;;;;;;19.12;49.03;101506.07;104894;1306;73851;-83
2022/05/01 03:42:17;;;;;;;;;;;;;;;;;;;;;
2022/05/01 03:45:14;;;;;;;;;;;;;;;19.12;49.08;101506.25;104866;1306;61220;-85
2022/05/01 03:48:00;;;;;;;;;;;;;;;19.12;49.09;101508.57;104877;1306;61287;-87
2022/05/01 03:50:49;;;;;;;;;;;;;;;19.12;48.88;101511.42;104857;1306;73751;-85
2022/05/01 03:53:24;;;;;;;;;;;;;;;19.11;49.00;101512.86;104861;1306;75259;-81
2022/05/01 03:56:21;;;;;;;;;;;;;;;19.11;48.99;101514.45;104896;1306;61255;-86
2022/05/01 03:59:29;;;;;;;;;;;;;;;19.12;48.89;101517.83;104289;1314;59341;-88
2022/05/01 04:02:21;;;;;;;;;;;;;;;19.12;48.79;101519.09;104329;1313;73042;-86
2022/05/01 04:07:53;;;;;;;;;;;;;;;19.12;48.82;101517.13;103297;1323;61457;-81
2022/05/01 04:10:41;;;;;;;;;;;;;;;19.12;48.79;101522.86;103245;1323;61570;-84
2022/05/01 04:13:26;;;;;;;;;;;;;;;;;;;;;
2022/05/01 04:16:22;;;;;;;;;;;;;;;19.11;48.91;101526.95;103265;1321;74740;-85
2022/05/01 04:19:18;;;;;;;;;;;;;;;19.12;48.78;101527.82;103368;1320;61210;-83
2022/05/01 04:22:06;;;;;;;;;;;;;;;19.11;48.80;101524.64;103334;1320;61188;-84
2022/05/01 04:25:07;;;;;;;;;;;;;;;19.11;48.73;101521.77;103296;1320;73771;-85
2022/05/01 04:27:52;;;;;;;;;;;;;;;19.12;48.72;101525.34;103317;1320;75939;-81
2022/05/01 04:30:31;;;;;;;;;;;;;;;;;;;;;
2022/05/01 04:33:41;;;;;;;;;;;;;;;19.12;48.75;101523.00;103548;1317;61205;-84
2022/05/01 04:36:29;;;;;;;;;;;;;;;19.13;48.58;101525.11;104136;1316;73323;-83
2022/05/01 04:38:58;;;;;;;;;;;;;;;19.13;48.55;101529.02;104190;1317;76109;-82
2022/05/01 04:41:49;;;;;;;;;;;;;;;19.13;48.68;101519.75;104254;1306;61381;-83
2022/05/01 04:44:44;;;;;;;;;;;;;;;;;;;;;
2022/05/01 04:47:34;;;;;;;;;;;;;;;19.13;48.72;101522.95;104217;1317;72757;-83
2022/05/01 04:50:30;;;;;;;;;;;;;;;19.13;48.79;101528.64;104216;1317;75603;-82
2022/05/01 04:53:30;;;;;;;;;;;;;;;;;;;;;
2022/05/01 04:59:15;;;;;;;;;;;;;;;19.14;48.69;101520.20;103142;1322;73661;-83
2022/05/01 05:01:52;;;;;;;;;;;;;;;19.15;48.69;101520.33;103031;1323;73999;-83
2022/05/01 05:04:26;;;;;;;;;;;;;;;19.15;48.67;101519.61;103064;1323;61428;-83
2022/05/01 05:07:38;;;;;;;;;;;;;;;19.16;48.57;101521.91;103320;1320;61524;-83
2022/05/01 05:10:33;;;;;;;;;;;;;;;19.17;48.46;101520.76;103365;1319;74156;-83
2022/05/01 05:13:42;;;;;;;;;;;;;;;;;;;;;
2022/05/01 05:16:13;;;;;;;;;;;;;;;19.20;48.55;101520.97;103333;1320;61701;-86
2022/05/01 05:19:21;;;;;;;;;;;;;;;19.21;48.62;101520.56;103387;1320;61177;-81
2022/05/01 05:22:10;;;;;;;;;;;;;;;19.22;48.73;101518.51;103860;1314;71420;-81
2022/05/01 05:24:58;;;;;;;;;;;;;;;19.24;48.73;101520.02;104262;1314;75741;-87
2022/05/01 05:27:47;;;;;;;;;;;;;;;19.26;48.80;101520.31;104719;1306;61177;-85
2022/05/01 05:30:57;;;;;;;;;;;;;;;;;;;;;
2022/05/01 05:33:38;;;;;;;;;;;;;;;19.30;48.72;101515.80;104724;1305;74133;-83
2022/05/01 05:36:24;;;;;;;;;;;;;;;;;;;;;
2022/05/01 05:39:10;;;;;;;;;;;;;;;19.33;48.59;101507.98;104918;1305;61154;-81
2022/05/01 05:41:55;;;;;;;;;;;;;;;19.35;48.78;101510.40;104751;1306;61254;-83
2022/05/01 05:44:33;;;;;;;;;;;;;;;19.36;48.88;101509.80;104873;1306;73956;-82
2022/05/01 05:47:07;;;;;;;;;;;;;;;19.37;48.80;101512.38;104686;1306;75691;-86
2022/05/01 05:49:40;;;;;;;;;;;;;;;19.38;48.61;101515.74;104718;1306;61258;-82
2022/05/01 05:52:43;;;;;;;;;;;;;;;19.39;48.69;101508.20;104614;1306;61265;-89
2022/05/01 05:55:46;;;;;;;;;;;;;;;19.40;48.82;101512.77;104660;1306;73741;-83
2022/05/01 05:58:34;;;;;;;;;;;;;;;19.42;48.70;101513.05;104336;1313;74675;-84
2022/05/01 06:01:18;;;;;;;;;;;;;;;19.43;48.69;101509.77;104285;1314;61507;-83
2022/05/01 06:04:06;;;;;;;;;;;;;;;19.44;48.67;101512.57;104334;1314;61176;-83
2022/05/01 06:06:42;;;;;;;;;;;;;;;19.46;48.67;101516.98;104265;1314;74296;-84
2022/05/01 06:09:32;;;;;;;;;;;;;;;;;;;;;
2022/05/01 06:12:28;;;;;;;;;;;;;;;19.47;48.78;101515.63;104269;1313;61156;-85
2022/05/01 06:15:05;;;;;;;;;;;;;;;19.48;48.63;101515.95;104324;1315;61269;-84
2022/05/01 06:18:12;;;;;;;;;;;;;;;19.50;48.75;101520.13;104240;1313;71454;-83
2022/05/01 06:20:49;;;;;;;;;;;;;;;19.51;48.75;101518.11;104313;1313;74656;-86
2022/05/01 06:23:27;;;;;;;;;;;;;;;19.52;48.86;101518.23;104242;1313;61302;-84
2022/05/01 06:26:03;;;;;;;;;;;;;;;19.53;48.95;101520.88;104228;1313;61472;-82
2022/05/01 06:28:59;;;;;;;;;;;;;;;;;;;;;
2022/05/01 06:31:48;;;;;;;;;;;;;;;19.54;48.87;101522.92;104318;1313;74804;-82
2022/05/01 06:34:17;;;;;;;;;;;;;;;19.55;48.91;101521.28;104329;1313;61305;-83
2022/05/01 06:37:05;;;;;;;;;;;;;;;19.55;48.64;101519.29;104623;1306;61310;-87
2022/05/01 06:40:03;;;;;;;;;;;;;;;19.57;48.80;101524.20;104347;1312;71554;-85
2022/05/01 06:42:51;;;;;;;;;;;;;;;19.58;48.90;101523.98;104335;1312;74786;-87
2022/05/01 06:45:37;;;;;;;;;;;;;;;;;;;;;
2022/05/01 06:48:17;;;;;;;;;;;;;;;19.58;49.01;101522.70;104345;1312;61258;-83
2022/05/01 06:51:25;;;;;;;;;;;;;;;19.59;48.85;101524.11;104319;1312;73951;-83
2022/05/01 06:54:10;;;;;;;;;;;;;;;;;;;;;
2022/05/01 06:57:07;;;;;;;;;;;;;;;19.60;48.98;101528.67;103680;1319;61386;-85
2022/05/01 06:59:56;;;;;;;;;;;;;;;19.61;48.84;101529.89;103689;1319;61303;-83
2022/05/01 07:02:39;;;;;;;;;;;;;;;19.61;49.01;101525.96;103672;1318;72666;-87
2022/05/01 07:05:13;;;;;;;;;;;;;;;19.62;48.87;101528.61;103689;1319;76386;-85
2022/05/01 07:08:00;;;;;;;;;;;;;;;;;;;;;
2022/05/01 07:10:53;;;;;;;;;;;;;;;19.62;48.87;101536.80;103687;1319;61357;-84
2022/05/01 07:13:31;;;;;;;;;;;;;;;19.62;48.81;101536.08;103576;1319;72794;-83
2022/05/01 07:16:13;;;;;;;;;;;;;;;;;;;;;
2022/05/01 07:19:19;;;;;;;;;;;;;;;19.63;48.82;101537.69;103270;1323;61079;-81
2022/05/01 07:22:06;;;;;;;;;;;;;;;19.63;48.80;101538.90;103306;1323;61616;-84
2022/05/01 07:24:41;;;;;;;;;;;;;;;19.64;48.78;101541.33;103223;1323;74400;-81
2022/05/01 07:27:37;;;;;;;;;;;;;;;19.64;48.82;101537.95;102929;1320;73009;-82
2022/05/01 07:31:04;;;;;;;;;;;;;;;;;;;;;
2022/05/01 07:33:38;;;;;;;;;;;;;;;;;;;;;
2022/05/01 07:36:17;;;;;;;;;;;;;;;19.64;48.69;101540.79;103369;1320;73199;-82
2022/05/01 07:38:59;;;;;;;;;;;;;;;19.64;48.76;101542.57;103383;1318;74866;-86
2022/05/01 07:41:45;;;;;;;;;;;;;;;19.65;48.86;101539.16;103209;1320;61172;-83
2022/05/01 07:44:18;;;;;;;;;;;;;;;19.65;48.66;101541.10;103044;1325;61364;-84
2022/05/01 07:47:14;;;;;;;;;;;;;;;19.65;48.83;101543.42;102937;1324;74352;-84
2022/05/01 07:50:01;;;;;;;;;;;;;;;19.65;48.91;101544.66;102973;1325;76489;-83
2022/05/01 07:52:46;;;;;;;;;;;;;;;19.65;48.92;101544.33;103038;1326;61215;-83
2022/05/01 07:55:33;;;;;;;;;;;;;;;;;;;;;
2022/05/01 07:58:35;;;;;;;;;;;;;;;;;;;;;
2022/05/01 08:01:30;;;;;;;;;;;;;;;19.66;48.77;101541.27;103562;1320;74915;-84
2022/05/01 08:07:01;;;;;;;;;;;;;;;19.66;48.72;101537.68;104240;1313;61282;-82
2022/05/01 08:09:58;;;;;;;;;;;;;;;19.66;48.82;101532.31;104217;1313;73342;-84
2022/05/01 08:12:27;;;;;;;;;;;;;;;19.66;48.86;101535.54;104314;1313;74681;-81
2022/05/01 08:15:21;;;;;;;;;;;;;;;19.65;48.71;101536.82;104214;1313;61229;-81
2022/05/01 08:21:50;;;;;;;;;;;;;;;19.65;48.80;101537.17;104489;1306;73760;-83
2022/05/01 08:24:16;;;;;;;;;;;;;;;19.65;48.74;101536.81;104635;1309;74846;-83
2022/05/01 08:27:08;;;;;;;;;;;;;;;19.65;48.84;101533.78;104677;1306;62983;-89
2022/05/01 08:30:16;;;;;;;;;;;;;;;19.65;48.91;101538.05;104764;1306;61272;-83
2022/05/01 08:33:06;;;;;;;;;;;;;;;;;;;;;
2022/05/01 08:35:52;;;;;;;;;;;;;;;19.65;48.64;101528.61;104888;1305;74830;-83
2022/05/01 08:38:52;;;;;;;;;;;;;;;;;;;;;
2022/05/01 08:41:28;;;;;;;;;;;;;;;;;;;;;
2022/05/01 08:44:33;;;;;;;;;;;;;;;19.65;48.93;101518.10;104189;1314;72226;-81
2022/05/01 08:47:13;;;;;;;;;;;;;;;19.64;48.79;101515.08;104183;1314;75899;-85
2022/05/01 08:49:53;;;;;;;;;;;;;;;19.65;48.80;101518.27;104241;1314;61397;-83
2022/05/01 08:53:06;;;;;;;;;;;;;;;19.65;48.76;101512.90;103049;1323;61440;-84
2022/05/01 08:56:23;;;;;;;;;;;;;;;19.65;48.87;101508.05;103219;1320;71418;-82
2022/05/01 08:59:25;;;;;;;;;;;;;;;19.65;48.94;101506.98;102833;1325;74610;-84
2022/05/01 09:02:11;;;;;;;;;;;;;;;19.66;48.93;101506.42;102702;1326;61397;-81
2022/05/01 09:05:11;;;;;;;;;;;;;;;19.66;48.93;101511.05;102511;1331;61660;-82
2022/05/01 09:07:56;;;;;;;;;;;;;;;19.66;48.84;101508.19;101824;1341;73944;-82
2022/05/01 09:10:44;;;;;;;;;;;;;;;19.67;48.85;101507.98;101905;1338;75757;-82
2022/05/01 09:13:41;;;;;;;;;;;;;;;;;;;;;
2022/05/01 09:16:28;;;;;;;;;;;;;;;19.67;48.92;101506.35;101774;1343;61621;-84
2022/05/01 09:19:12;;;;;;;;;;;;;;;19.67;48.82;101507.05;101603;1342;73986;-82
2022/05/01 09:21:53;;;;;;;;;;;;;;;19.68;48.77;101503.83;101618;1344;74929;-82
2022/05/01 09:24:45;;;;;;;;;;;;;;;19.67;48.86;101497.95;101786;1344;61449;-86
2022/05/01 09:27:32;;;;;;;;;;;;;;;19.68;48.87;101496.70;101672;1344;61441;-81
2022/05/01 09:30:21;;;;;;;;;;;;;;;19.67;48.89;101491.55;101802;1341;74036;-79
2022/05/01 09:32:53;;;;;;;;;;;;;;;19.66;48.96;101488.71;101822;1338;76371;-85
2022/05/01 09:36:16;;;;;;;;;;;;;;;19.67;48.86;101487.46;102024;1335;61674;-86
2022/05/01 09:38:50;;;;;;;;;;;;;;;19.66;48.90;101492.14;102077;1335;61445;-81
2022/05/01 09:41:28;;;;;;;;;;;;;;;19.65;48.92;101490.02;102253;1332;73340;-84
2022/05/01 09:44:08;;;;;;;;;;;;;;;;;;;;;
2022/05/01 09:47:00;;;;;;;;;;;;;;;19.64;48.95;101489.92;103105;1322;61226;-83
2022/05/01 09:50:07;;;;;;;;;;;;;;;19.63;48.90;101489.06;103214;1318;61824;-83
2022/05/01 09:53:06;;;;;;;;;;;;;;;;;;;;;
2022/05/01 09:55:52;;;;;;;;;;;;;;;19.61;48.98;101486.48;103314;1316;74849;-86
2022/05/01 09:58:23;;;;;;;;;;;;;;;19.60;49.01;101485.80;104121;1316;61668;-83
2022/05/01 10:01:32;;;;;;;;;;;;;;;19.60;49.05;101486.19;104136;1316;61301;-85
2022/05/01 10:04:18;;;;;;;;;;;;;;;19.59;48.95;101484.99;104216;1316;72887;-81
2022/05/01 10:07:23;;;;;;;;;;;;;;;;;;;;;
2022/05/01 10:13:23;;;;;;;;;;;;;;;19.57;49.00;101481.33;102547;1332;61474;-85
2022/05/01 10:16:20;;;;;;;;;;;;;;;19.57;49.01;101478.66;102556;1332;71771;-83
2022/05/01 10:18:56;;;;;;;;;;;;;;;19.56;49.01;101479.44;102097;1338;75047;-83
2022/05/01 10:21:32;;;;;;;;;;;;;;;19.56;49.02;101476.05;102094;1337;61314;-82
2022/05/01 10:24:20;;;;;;;;;;;;;;;19.55;48.95;101473.25;102077;1337;61270;-82
2022/05/01 10:27:20;;;;;;;;;;;;;;;;;;;;;
2022/05/01 10:33:28;;;;;;;;;;;;;;;19.53;48.96;101462.98;101900;1338;61261;-83
2022/05/01 10:36:29;;;;;;;;;;;;;;;19.53;49.02;101466.21;101955;1338;60539;-81
2022/05/01 10:39:16;;;;;;;;;;;;;;;;;;;;;
2022/05/01 10:42:02;;;;;;;;;;;;;;;19.53;48.95;101460.69;101928;1338;74043;-84
2022/05/01 10:44:56;;;;;;;;;;;;;;;;;;;;;
2022/05/01 10:47:45;;;;;;;;;;;;;;;19.53;48.99;101454.08;102286;1335;61846;-83
2022/05/01 10:50:40;;;;;;;;;;;;;;;19.53;49.08;101447.81;102581;1322;72211;-84
2022/05/01 10:53:16;;;;;;;;;;;;;;;19.52;49.05;101444.27;103304;1320;75920;-82
2022/05/01 10:56:11;;;;;;;;;;;;;;;19.52;49.07;101444.11;103751;1312;61300;-87
2022/05/01 10:58:46;;;;;;;;;;;;;;;19.52;49.03;101439.64;104398;1312;61290;-88
2022/05/01 11:02:36;;;;;;;;;;;;;;;19.52;49.04;101434.46;103665;1318;71873;-81
2022/05/01 11:05:09;;;;;;;;;;;;;;;19.52;49.22;101429.48;103787;1318;74865;-82
2022/05/01 11:07:42;;;;;;;;;;;;;;;19.52;48.99;101426.97;104194;1312;61425;-83
2022/05/01 11:10:37;;;;;;;;;;;;;;;19.52;49.07;101429.30;104338;1312;61326;-81
2022/05/01 11:13:08;;;;;;;;;;;;;;;19.52;49.21;101426.45;104328;1312;74234;-81
2022/05/01 11:16:05;;;;;;;;;;;;;;;19.51;49.10;101422.03;104290;1312;73777;-85
2022/05/01 11:19:11;;;;;;;;;;;;;;;19.51;49.10;101419.35;103423;1319;61291;-84
2022/05/01 11:21:39;;;;;;;;;;;;;;;19.51;49.09;101419.71;103585;1319;61285;-84
2022/05/01 11:24:19;;;;;;;;;;;;;;;;;;;;;
2022/05/01 11:27:25;;;;;;;;;;;;;;;19.51;49.18;101417.40;103380;1320;76018;-89
2022/05/01 11:30:49;;;;;;;;;;;;;;;19.51;49.17;101415.27;103598;1318;61340;-84
2022/05/01 11:33:32;;;;;;;;;;;;;;;19.51;49.06;101405.08;103592;1319;61172;-84
2022/05/01 11:36:47;;;;;;;;;;;;;;;19.51;48.94;101397.40;103472;1319;70503;-84
2022/05/01 11:39:49;;;;;;;;;;;;;;;19.51;49.07;101394.52;103682;1315;75724;-87
2022/05/01 11:42:44;;;;;;;;;;;;;;;19.52;49.20;101387.90;103869;1314;61343;-82
2022/05/01 11:45:30;;;;;;;;;;;;;;;19.52;49.09;101384.32;104259;1314;61318;-86
2022/05/01 11:48:21;;;;;;;;;;;;;;;19.52;49.09;101391.45;103692;1319;73921;-84
2022/05/01 11:51:08;;;;;;;;;;;;;;;19.52;49.03;101391.29;103054;1326;75024;-83
2022/05/01 11:53:54;;;;;;;;;;;;;;;19.52;49.05;101389.35;102893;1325;61295;-87
2022/05/01 12:02:35;;;;;;;;;;;;;;;19.51;48.92;101377.25;103699;1316;73638;-86
2022/05/01 12:05:28;;;;;;;;;;;;;;;19.51;49.15;101371.36;103325;1319;61188;-85
2022/05/01 12:08:03;;;;;;;;;;;;;;;19.51;49.14;101369.40;103874;1317;61707;-84
2022/05/01 12:11:10;;;;;;;;;;;;;;;;;;;;;
2022/05/01 12:13:48;;;;;;;;;;;;;;;19.49;48.90;101352.88;103888;1315;74875;-83
2022/05/01 12:16:24;;;;;;;;;;;;;;;;;;;;;
2022/05/01 12:19:18;;;;;;;;;;;;;;;19.49;48.92;101339.86;103641;1317;62084;-83
2022/05/01 12:22:05;;;;;;;;;;;;;;;19.49;48.97;101335.40;102857;1325;72991;-86
2022/05/01 12:24:51;;;;;;;;;;;;;;;19.49;48.97;101326.48;102937;1326;73748;-82
2022/05/01 12:27:36;;;;;;;;;;;;;;;19.49;48.92;101324.16;102835;1321;61312;-85
2022/05/01 12:30:20;;;;;;;;;;;;;;;19.49;49.09;101321.66;103866;1317;61339;-83
2022/05/01 12:33:09;;;;;;;;;;;;;;;19.49;49.03;101315.06;103910;1317;73715;-86
2022/05/01 12:36:09;;;;;;;;;;;;;;;19.50;48.93;101309.48;103877;1317;74721;-80
2022/05/01 12:39:13;;;;;;;;;;;;;;;19.50;48.92;101302.13;103810;1317;61180;-85
2022/05/01 12:45:04;;;;;;;;;;;;;;;19.51;48.98;101290.85;103746;1316;72931;-87
2022/05/01 12:47:47;;;;;;;;;;;;;;;19.51;48.91;101286.54;103666;1317;74777;-83
2022/05/01 12:50:53;;;;;;;;;;;;;;;19.51;48.91;101282.07;103808;1317;61216;-82
2022/05/01 12:53:44;;;;;;;;;;;;;;;19.52;48.89;101280.05;102899;1325;61325;-84
2022/05/01 12:56:36;;;;;;;;;;;;;;;19.53;48.92;101275.55;102794;1326;74125;-82
2022/05/01 12:59:22;;;;;;;;;;;;;;;19.53;48.90;101273.23;102614;1329;74744;-83
2022/05/01 13:02:12;;;;;;;;;;;;;;;19.53;48.83;101273.40;102749;1328;61423;-82
2022/05/01 13:04:41;;;;;;;;;;;;;;;19.53;48.88;101267.51;102538;1327;62713;-81
2022/05/01 13:07:55;;;;;;;;;;;;;;;19.54;48.84;101263.55;102668;1329;72869;-81
2022/05/01 13:10:41;;;;;;;;;;;;;;;19.55;48.79;101265.11;102522;1331;74908;-81
2022/05/01 13:13:35;;;;;;;;;;;;;;;19.54;48.81;101261.04;102488;1331;61376;-81
2022/05/01 13:16:25;;;;;;;;;;;;;;;;;;;;;
2022/05/01 13:19:10;;;;;;;;;;;;;;;19.55;48.85;101252.06;102564;1332;73878;-82
2022/05/01 13:22:16;;;;;;;;;;;;;;;19.55;48.88;101250.77;101887;1340;73634;-83
2022/05/01 13:24:47;;;;;;;;;;;;;;;19.56;48.80;101242.89;101880;1340;61305;-79
2022/05/01 13:27:37;;;;;;;;;;;;;;;19.56;48.84;101237.70;101935;1339;62027;-85
2022/05/01 13:30:32;;;;;;;;;;;;;;;19.56;48.85;101234.10;101859;1338;71570;-85
2022/05/01 13:33:27;;;;;;;;;;;;;;;19.57;48.86;101236.22;101961;1338;75146;-85
2022/05/01 13:36:21;;;;;;;;;;;;;;;19.57;48.80;101236.00;102044;1335;61390;-86
2022/05/01 13:39:16;;;;;;;;;;;;;;;19.57;48.77;101231.00;102477;1332;61659;-84
2022/05/01 13:45:27;;;;;;;;;;;;;;;19.58;48.86;101223.48;102701;1326;74996;-88
2022/05/01 13:48:16;;;;;;;;;;;;;;;19.58;48.82;101221.85;102791;1326;61619;-84
2022/05/01 13:51:14;;;;;;;;;;;;;;;19.58;48.85;101219.52;102749;1326;61292;-81
2022/05/01 13:53:58;;;;;;;;;;;;;;;19.58;48.80;101215.77;102821;1325;71915;-80
2022/05/01 13:56:47;;;;;;;;;;;;;;;19.59;48.68;101213.41;102813;1325;75575;-81
2022/05/01 13:59:55;;;;;;;;;;;;;;;19.59;48.70;101212.33;103213;1319;62869;-82
2022/05/01 14:02:32;;;;;;;;;;;;;;;19.60;48.66;101208.73;103130;1323;61712;-90
2022/05/01 14:05:19;;;;;;;;;;;;;;;19.60;48.82;101214.08;102999;1323;73977;-85
2022/05/01 14:08:11;;;;;;;;;;;;;;;19.60;48.64;101215.70;103208;1319;76147;-83
2022/05/01 14:11:04;;;;;;;;;;;;;;;19.61;48.73;101215.98;103693;1319;61339;-82
2022/05/01 14:13:42;;;;;;;;;;;;;;;19.62;48.68;101213.30;103801;1317;61316;-81
2022/05/01 14:16:19;;;;;;;;;;;;;;;19.62;48.65;101212.38;103849;1317;74261;-85
2022/05/01 14:19:14;;;;;;;;;;;;;;;19.62;48.77;101212.02;103903;1317;73762;-81
2022/05/01 14:22:03;;;;;;;;;;;;;;;19.63;48.70;101215.36;103896;1317;61343;-89
2022/05/01 14:24:35;;;;;;;;;;;;;;;19.63;48.76;101216.08;103929;1318;61404;-81
2022/05/01 14:27:11;;;;;;;;;;;;;;;19.63;48.54;101216.22;103694;1318;73132;-80
2022/05/01 14:29:46;;;;;;;;;;;;;;;19.63;48.58;101212.11;103775;1318;75306;-80
2022/05/01 14:32:12;;;;;;;;;;;;;;;19.64;48.50;101207.96;103716;1317;61485;-80
2022/05/01 14:34:50;;;;;;;;;;;;;;;19.64;48.66;101206.69;103869;1316;61288;-81
2022/05/01 14:37:42;;;;;;;;;;;;;;;;;;;;;
2022/05/01 14:40:09;;;;;;;;;;;;;;;19.66;48.63;101210.36;104188;1313;74838;-81
2022/05/01 14:42:58;;;;;;;;;;;;;;;19.66;48.49;101214.97;104243;1313;61192;-83
2022/05/01 14:45:52;;;;;;;;;;;;;;;19.66;48.49;101209.79;104316;1313;61170;-84
2022/05/01 14:48:40;;;;;;;;;;;;;;;19.67;48.44;101207.27;104251;1313;73740;-85
2022/05/01 14:54:35;;;;;;;;;;;;;;;19.68;48.28;101203.64;102674;1328;61242;-84
2022/05/01 14:57:22;;;;;;;;;;;;;;;19.68;48.29;101206.45;102718;1329;61316;-84
2022/05/01 15:06:20;;;;;;;;;;;;;;;19.70;48.19;101201.91;102801;1326;59542;-87
2022/05/01 15:09:03;;;;;;;;;;;;;;;19.70;48.15;101199.73;102785;1326;61536;-87
2022/05/01 15:11:52;;;;;;;;;;;;;;;19.70;48.13;101198.64;102750;1326;73891;-82
2022/05/01 15:14:43;;;;;;;;;;;;;;;;;;;;;
2022/05/01 15:17:24;;;;;;;;;;;;;;;19.71;48.08;101194.52;102728;1329;61381;-82
2022/05/01 15:20:20;;;;;;;;;;;;;;;19.71;48.00;101193.27;102776;1326;61525;-84
2022/05/01 15:23:21;;;;;;;;;;;;;;;19.71;47.97;101188.08;102719;1326;72983;-81
2022/05/01 15:26:06;;;;;;;;;;;;;;;19.71;48.03;101190.02;102770;1326;74883;-87
2022/05/01 15:28:51;;;;;;;;;;;;;;;;;;;;;
2022/05/01 15:31:58;;;;;;;;;;;;;;;19.72;47.93;101183.08;103822;1312;61294;-84
2022/05/01 15:34:45;;;;;;;;;;;;;;;19.72;47.81;101184.09;104413;1312;72674;-81
2022/05/01 15:37:33;;;;;;;;;;;;;;;19.72;47.80;101178.03;104417;1312;74391;-85
2022/05/01 15:40:42;;;;;;;;;;;;;;;;;;;;;
2022/05/01 15:43:30;;;;;;;;;;;;;;;19.71;47.74;101179.48;103689;1319;61171;-84
2022/05/01 15:46:21;;;;;;;;;;;;;;;19.70;47.79;101182.58;103679;1319;72752;-82
2022/05/01 15:55:34;;;;;;;;;;;;;;;;;;;;;
2022/05/01 15:58:13;;;;;;;;;;;;;;;19.68;47.60;101179.70;103684;1319;73865;-81
2022/05/01 16:01:08;;;;;;;;;;;;;;;19.67;47.67;101179.77;103700;1319;74727;-83
2022/05/01 16:04:06;;;;;;;;;;;;;;;;;;;;;
2022/05/01 16:06:53;;;;;;;;;;;;;;;19.66;47.76;101178.92;103656;1319;61147;-83
2022/05/01 16:09:22;;;;;;;;;;;;;;;19.65;47.68;101176.64;103760;1319;73967;-85
2022/05/01 16:12:00;;;;;;;;;;;;;;;19.64;47.70;101177.77;103386;1320;76053;-83
2022/05/01 16:15:10;;;;;;;;;;;;;;;19.64;47.71;101187.23;103326;1320;61206;-82
2022/05/01 16:18:07;;;;;;;;;;;;;;;19.64;47.83;101189.41;103680;1319;61367;-84
2022/05/01 16:21:16;;;;;;;;;;;;;;;19.63;47.76;101194.27;103569;1319;71609;-84
2022/05/01 16:24:22;;;;;;;;;;;;;;;19.63;47.72;101195.52;103551;1319;73715;-82
2022/05/01 16:27:09;;;;;;;;;;;;;;;19.63;47.91;101196.08;103507;1319;61213;-82
2022/05/01 16:30:08;;;;;;;;;;;;;;;19.62;47.56;101191.68;103492;1319;61424;-83
2022/05/01 16:32:52;;;;;;;;;;;;;;;19.62;47.84;101200.06;103482;1319;71613;-82
2022/05/01 16:35:58;;;;;;;;;;;;;;;19.62;47.76;101196.50;103560;1319;73604;-87
2022/05/01 16:39:02;;;;;;;;;;;;;;;;;;;;;
2022/05/01 16:41:36;;;;;;;;;;;;;;;19.62;47.77;101199.01;102691;1329;61297;-83
2022/05/01 16:44:41;;;;;;;;;;;;;;;19.62;47.88;101199.20;102563;1329;71760;-87